sensor_id;sensor_type;location;lat;lon;timestamp;P1;durP1;ratioP1;P2;durP2;ratioP2
58752;SDS011;44525;46.052;13.610;2023-07-22T00:01:33;10.75;;;4.18;;
58752;SDS011;44525;46.052;13.610;2023-07-22T00:03:59;8.73;;;4.25;;
58752;SDS011;44525;46.052;13.610;2023-07-22T00:06:24;7.85;;;4.10;;
58752;SDS011;44525;46.052;13.610;2023-07-22T00:08:49;10.40;;;4.53;;
58752;SDS011;44525;46.052;13.610;2023-07-22T00:11:15;8.57;;;4.05;;
58752;SDS011;44525;46.052;13.610;2023-07-22T00:13:41;7.45;;;3.92;;
58752;SDS011;44525;46.052;13.610;2023-07-22T00:16:08;6.90;;;4.10;;
58752;SDS011;44525;46.052;13.610;2023-07-22T00:18:35;9.10;;;4.40;;
58752;SDS011;44525;46.052;13.610;2023-07-22T00:21:01;6.53;;;3.80;;
58752;SDS011;44525;46.052;13.610;2023-07-22T00:23:27;10.23;;;4.60;;
58752;SDS011;44525;46.052;13.610;2023-07-22T00:25:52;10.80;;;4.60;;
58752;SDS011;44525;46.052;13.610;2023-07-22T00:28:18;7.75;;;3.63;;
58752;SDS011;44525;46.052;13.610;2023-07-22T00:30:43;8.60;;;4.35;;
58752;SDS011;44525;46.052;13.610;2023-07-22T00:33:09;9.20;;;4.22;;
58752;SDS011;44525;46.052;13.610;2023-07-22T00:35:34;9.68;;;4.30;;
58752;SDS011;44525;46.052;13.610;2023-07-22T00:38:00;9.63;;;4.10;;
58752;SDS011;44525;46.052;13.610;2023-07-22T00:40:26;8.65;;;3.88;;
58752;SDS011;44525;46.052;13.610;2023-07-22T00:42:52;8.07;;;4.65;;
58752;SDS011;44525;46.052;13.610;2023-07-22T00:45:17;7.72;;;3.95;;
58752;SDS011;44525;46.052;13.610;2023-07-22T00:47:43;6.72;;;3.97;;
58752;SDS011;44525;46.052;13.610;2023-07-22T00:50:09;7.13;;;4.13;;
58752;SDS011;44525;46.052;13.610;2023-07-22T00:52:35;6.45;;;3.92;;
58752;SDS011;44525;46.052;13.610;2023-07-22T00:55:02;8.50;;;4.20;;
58752;SDS011;44525;46.052;13.610;2023-07-22T00:57:28;6.82;;;3.95;;
58752;SDS011;44525;46.052;13.610;2023-07-22T00:59:53;8.88;;;3.70;;
58752;SDS011;44525;46.052;13.610;2023-07-22T01:02:21;8.73;;;4.00;;
58752;SDS011;44525;46.052;13.610;2023-07-22T01:04:47;11.43;;;4.10;;
58752;SDS011;44525;46.052;13.610;2023-07-22T01:07:14;9.48;;;4.03;;
58752;SDS011;44525;46.052;13.610;2023-07-22T01:09:40;7.25;;;3.70;;
58752;SDS011;44525;46.052;13.610;2023-07-22T01:12:07;6.63;;;3.80;;
58752;SDS011;44525;46.052;13.610;2023-07-22T01:14:34;7.55;;;4.03;;
58752;SDS011;44525;46.052;13.610;2023-07-22T01:17:04;8.95;;;4.00;;
58752;SDS011;44525;46.052;13.610;2023-07-22T01:19:32;8.20;;;4.15;;
58752;SDS011;44525;46.052;13.610;2023-07-22T01:21:59;6.28;;;3.70;;
58752;SDS011;44525;46.052;13.610;2023-07-22T01:24:27;10.75;;;4.20;;
58752;SDS011;44525;46.052;13.610;2023-07-22T01:26:53;8.02;;;3.83;;
58752;SDS011;44525;46.052;13.610;2023-07-22T01:29:18;7.35;;;4.15;;
58752;SDS011;44525;46.052;13.610;2023-07-22T01:31:46;7.63;;;4.03;;
58752;SDS011;44525;46.052;13.610;2023-07-22T01:34:12;8.80;;;4.15;;
58752;SDS011;44525;46.052;13.610;2023-07-22T01:36:37;7.05;;;4.10;;
58752;SDS011;44525;46.052;13.610;2023-07-22T01:39:03;6.78;;;3.53;;
58752;SDS011;44525;46.052;13.610;2023-07-22T01:41:30;6.70;;;3.80;;
58752;SDS011;44525;46.052;13.610;2023-07-22T01:43:56;7.32;;;3.80;;
58752;SDS011;44525;46.052;13.610;2023-07-22T01:46:21;5.97;;;3.50;;
58752;SDS011;44525;46.052;13.610;2023-07-22T01:48:46;9.75;;;4.10;;
58752;SDS011;44525;46.052;13.610;2023-07-22T01:51:12;7.55;;;3.75;;
58752;SDS011;44525;46.052;13.610;2023-07-22T01:53:37;6.60;;;4.00;;
58752;SDS011;44525;46.052;13.610;2023-07-22T01:56:03;8.20;;;3.60;;
58752;SDS011;44525;46.052;13.610;2023-07-22T01:58:30;10.43;;;3.83;;
58752;SDS011;44525;46.052;13.610;2023-07-22T02:00:55;8.10;;;4.30;;
58752;SDS011;44525;46.052;13.610;2023-07-22T02:03:20;6.60;;;3.90;;
58752;SDS011;44525;46.052;13.610;2023-07-22T02:05:46;6.75;;;3.58;;
58752;SDS011;44525;46.052;13.610;2023-07-22T02:08:11;9.57;;;3.78;;
58752;SDS011;44525;46.052;13.610;2023-07-22T02:10:36;8.60;;;3.92;;
58752;SDS011;44525;46.052;13.610;2023-07-22T02:13:02;6.07;;;3.60;;
58752;SDS011;44525;46.052;13.610;2023-07-22T02:15:29;8.43;;;3.90;;
58752;SDS011;44525;46.052;13.610;2023-07-22T02:17:55;6.32;;;3.90;;
58752;SDS011;44525;46.052;13.610;2023-07-22T02:20:21;6.97;;;3.70;;
58752;SDS011;44525;46.052;13.610;2023-07-22T02:22:46;7.13;;;3.70;;
58752;SDS011;44525;46.052;13.610;2023-07-22T02:25:13;5.82;;;3.80;;
58752;SDS011;44525;46.052;13.610;2023-07-22T02:27:40;8.30;;;3.78;;
58752;SDS011;44525;46.052;13.610;2023-07-22T02:30:06;8.25;;;3.92;;
58752;SDS011;44525;46.052;13.610;2023-07-22T02:32:38;8.93;;;3.72;;
58752;SDS011;44525;46.052;13.610;2023-07-22T02:35:05;7.65;;;3.80;;
58752;SDS011;44525;46.052;13.610;2023-07-22T02:37:35;7.38;;;3.80;;
58752;SDS011;44525;46.052;13.610;2023-07-22T02:40:02;9.23;;;3.80;;
58752;SDS011;44525;46.052;13.610;2023-07-22T02:42:32;5.65;;;3.72;;
58752;SDS011;44525;46.052;13.610;2023-07-22T02:44:59;6.60;;;3.67;;
58752;SDS011;44525;46.052;13.610;2023-07-22T02:47:24;6.93;;;3.95;;
58752;SDS011;44525;46.052;13.610;2023-07-22T02:49:50;8.13;;;3.80;;
58752;SDS011;44525;46.052;13.610;2023-07-22T02:52:15;6.70;;;3.85;;
58752;SDS011;44525;46.052;13.610;2023-07-22T02:54:40;12.02;;;3.90;;
58752;SDS011;44525;46.052;13.610;2023-07-22T02:57:06;9.02;;;3.70;;
58752;SDS011;44525;46.052;13.610;2023-07-22T02:59:32;9.43;;;4.30;;
58752;SDS011;44525;46.052;13.610;2023-07-22T03:01:58;6.60;;;3.50;;
58752;SDS011;44525;46.052;13.610;2023-07-22T03:04:23;7.55;;;3.72;;
58752;SDS011;44525;46.052;13.610;2023-07-22T03:06:48;7.45;;;3.88;;
58752;SDS011;44525;46.052;13.610;2023-07-22T03:09:14;7.78;;;3.92;;
58752;SDS011;44525;46.052;13.610;2023-07-22T03:11:39;9.82;;;4.15;;
58752;SDS011;44525;46.052;13.610;2023-07-22T03:14:04;6.50;;;3.50;;
58752;SDS011;44525;46.052;13.610;2023-07-22T03:16:30;7.88;;;3.92;;
58752;SDS011;44525;46.052;13.610;2023-07-22T03:18:56;10.13;;;4.50;;
58752;SDS011;44525;46.052;13.610;2023-07-22T03:21:22;5.90;;;3.40;;
58752;SDS011;44525;46.052;13.610;2023-07-22T03:23:48;9.88;;;3.90;;
58752;SDS011;44525;46.052;13.610;2023-07-22T03:26:13;7.03;;;3.97;;
58752;SDS011;44525;46.052;13.610;2023-07-22T03:28:39;11.15;;;4.13;;
58752;SDS011;44525;46.052;13.610;2023-07-22T03:31:06;9.35;;;4.10;;
58752;SDS011;44525;46.052;13.610;2023-07-22T03:33:33;7.25;;;3.85;;
58752;SDS011;44525;46.052;13.610;2023-07-22T03:35:59;9.73;;;4.00;;
58752;SDS011;44525;46.052;13.610;2023-07-22T03:38:25;10.80;;;4.07;;
58752;SDS011;44525;46.052;13.610;2023-07-22T03:40:50;6.93;;;3.63;;
58752;SDS011;44525;46.052;13.610;2023-07-22T03:43:17;7.10;;;3.65;;
58752;SDS011;44525;46.052;13.610;2023-07-22T03:45:43;6.85;;;3.70;;
58752;SDS011;44525;46.052;13.610;2023-07-22T03:48:08;7.75;;;3.70;;
58752;SDS011;44525;46.052;13.610;2023-07-22T03:50:34;10.38;;;4.55;;
58752;SDS011;44525;46.052;13.610;2023-07-22T03:52:59;7.95;;;3.90;;
58752;SDS011;44525;46.052;13.610;2023-07-22T03:55:24;7.95;;;3.75;;
58752;SDS011;44525;46.052;13.610;2023-07-22T03:57:50;8.50;;;4.13;;
58752;SDS011;44525;46.052;13.610;2023-07-22T04:00:15;9.60;;;4.32;;
58752;SDS011;44525;46.052;13.610;2023-07-22T04:02:41;7.47;;;3.42;;
58752;SDS011;44525;46.052;13.610;2023-07-22T04:05:07;7.97;;;4.10;;
58752;SDS011;44525;46.052;13.610;2023-07-22T04:07:33;5.63;;;3.45;;
58752;SDS011;44525;46.052;13.610;2023-07-22T04:09:58;8.13;;;3.65;;
58752;SDS011;44525;46.052;13.610;2023-07-22T04:12:24;6.57;;;3.90;;
58752;SDS011;44525;46.052;13.610;2023-07-22T04:14:49;8.75;;;3.97;;
58752;SDS011;44525;46.052;13.610;2023-07-22T04:17:15;5.68;;;3.40;;
58752;SDS011;44525;46.052;13.610;2023-07-22T04:19:40;10.00;;;3.70;;
58752;SDS011;44525;46.052;13.610;2023-07-22T04:22:07;5.43;;;3.53;;
58752;SDS011;44525;46.052;13.610;2023-07-22T04:24:32;7.40;;;3.95;;
58752;SDS011;44525;46.052;13.610;2023-07-22T04:26:57;15.70;;;4.60;;
58752;SDS011;44525;46.052;13.610;2023-07-22T04:29:23;5.82;;;3.50;;
58752;SDS011;44525;46.052;13.610;2023-07-22T04:31:48;9.55;;;3.75;;
58752;SDS011;44525;46.052;13.610;2023-07-22T04:34:14;6.35;;;3.58;;
58752;SDS011;44525;46.052;13.610;2023-07-22T04:36:39;7.22;;;3.85;;
58752;SDS011;44525;46.052;13.610;2023-07-22T04:39:04;8.40;;;3.72;;
58752;SDS011;44525;46.052;13.610;2023-07-22T04:41:30;6.55;;;3.55;;
58752;SDS011;44525;46.052;13.610;2023-07-22T04:43:56;7.18;;;3.60;;
58752;SDS011;44525;46.052;13.610;2023-07-22T04:46:23;5.65;;;3.63;;
58752;SDS011;44525;46.052;13.610;2023-07-22T04:48:48;8.48;;;3.97;;
58752;SDS011;44525;46.052;13.610;2023-07-22T04:51:14;6.22;;;3.45;;
58752;SDS011;44525;46.052;13.610;2023-07-22T04:53:39;8.18;;;3.42;;
58752;SDS011;44525;46.052;13.610;2023-07-22T04:56:04;8.90;;;3.72;;
58752;SDS011;44525;46.052;13.610;2023-07-22T04:58:29;6.65;;;3.80;;
58752;SDS011;44525;46.052;13.610;2023-07-22T05:00:55;6.47;;;3.13;;
58752;SDS011;44525;46.052;13.610;2023-07-22T05:03:20;7.20;;;3.70;;
58752;SDS011;44525;46.052;13.610;2023-07-22T05:05:45;9.77;;;3.80;;
58752;SDS011;44525;46.052;13.610;2023-07-22T05:08:11;6.57;;;3.20;;
58752;SDS011;44525;46.052;13.610;2023-07-22T05:10:37;7.40;;;3.70;;
58752;SDS011;44525;46.052;13.610;2023-07-22T05:13:03;6.57;;;3.60;;
58752;SDS011;44525;46.052;13.610;2023-07-22T05:15:28;7.82;;;3.85;;
58752;SDS011;44525;46.052;13.610;2023-07-22T05:17:53;8.20;;;3.47;;
58752;SDS011;44525;46.052;13.610;2023-07-22T05:20:19;6.43;;;3.50;;
58752;SDS011;44525;46.052;13.610;2023-07-22T05:22:44;16.17;;;4.35;;
58752;SDS011;44525;46.052;13.610;2023-07-22T05:25:10;7.78;;;3.65;;
58752;SDS011;44525;46.052;13.610;2023-07-22T05:27:35;8.25;;;3.33;;
58752;SDS011;44525;46.052;13.610;2023-07-22T05:30:01;7.97;;;3.60;;
58752;SDS011;44525;46.052;13.610;2023-07-22T05:32:29;5.70;;;3.60;;
58752;SDS011;44525;46.052;13.610;2023-07-22T05:34:55;7.10;;;3.58;;
58752;SDS011;44525;46.052;13.610;2023-07-22T05:37:21;7.03;;;3.47;;
58752;SDS011;44525;46.052;13.610;2023-07-22T05:39:47;6.13;;;3.40;;
58752;SDS011;44525;46.052;13.610;2023-07-22T05:42:12;5.90;;;3.33;;
58752;SDS011;44525;46.052;13.610;2023-07-22T05:44:38;9.23;;;4.03;;
58752;SDS011;44525;46.052;13.610;2023-07-22T05:47:03;7.22;;;3.17;;
58752;SDS011;44525;46.052;13.610;2023-07-22T05:49:28;6.97;;;3.17;;
58752;SDS011;44525;46.052;13.610;2023-07-22T05:51:54;8.00;;;3.38;;
58752;SDS011;44525;46.052;13.610;2023-07-22T05:54:19;5.68;;;3.30;;
58752;SDS011;44525;46.052;13.610;2023-07-22T05:56:45;7.53;;;3.38;;
58752;SDS011;44525;46.052;13.610;2023-07-22T05:59:11;6.47;;;3.20;;
58752;SDS011;44525;46.052;13.610;2023-07-22T06:01:37;6.45;;;2.97;;
58752;SDS011;44525;46.052;13.610;2023-07-22T06:04:03;8.15;;;3.17;;
58752;SDS011;44525;46.052;13.610;2023-07-22T06:06:29;7.85;;;3.50;;
58752;SDS011;44525;46.052;13.610;2023-07-22T06:08:54;5.57;;;3.25;;
58752;SDS011;44525;46.052;13.610;2023-07-22T06:11:19;4.78;;;2.92;;
58752;SDS011;44525;46.052;13.610;2023-07-22T06:13:46;5.32;;;3.10;;
58752;SDS011;44525;46.052;13.610;2023-07-22T06:16:11;6.25;;;3.22;;
58752;SDS011;44525;46.052;13.610;2023-07-22T06:18:37;5.97;;;3.40;;
58752;SDS011;44525;46.052;13.610;2023-07-22T06:21:02;5.22;;;3.10;;
58752;SDS011;44525;46.052;13.610;2023-07-22T06:23:27;6.60;;;3.10;;
58752;SDS011;44525;46.052;13.610;2023-07-22T06:25:53;5.13;;;3.25;;
58752;SDS011;44525;46.052;13.610;2023-07-22T06:28:18;4.30;;;2.80;;
58752;SDS011;44525;46.052;13.610;2023-07-22T06:30:44;5.75;;;3.30;;
58752;SDS011;44525;46.052;13.610;2023-07-22T06:33:09;5.00;;;3.10;;
58752;SDS011;44525;46.052;13.610;2023-07-22T06:35:34;4.88;;;3.08;;
58752;SDS011;44525;46.052;13.610;2023-07-22T06:38:00;5.00;;;3.20;;
58752;SDS011;44525;46.052;13.610;2023-07-22T06:40:25;6.70;;;3.35;;
58752;SDS011;44525;46.052;13.610;2023-07-22T06:42:50;4.57;;;3.10;;
58752;SDS011;44525;46.052;13.610;2023-07-22T06:45:16;5.43;;;3.33;;
58752;SDS011;44525;46.052;13.610;2023-07-22T06:47:41;5.18;;;3.03;;
58752;SDS011;44525;46.052;13.610;2023-07-22T06:50:07;4.95;;;3.50;;
58752;SDS011;44525;46.052;13.610;2023-07-22T06:52:32;5.55;;;2.97;;
58752;SDS011;44525;46.052;13.610;2023-07-22T06:54:58;6.18;;;3.10;;
58752;SDS011;44525;46.052;13.610;2023-07-22T06:57:23;5.43;;;3.33;;
58752;SDS011;44525;46.052;13.610;2023-07-22T06:59:51;7.95;;;3.40;;
58752;SDS011;44525;46.052;13.610;2023-07-22T07:02:18;5.82;;;3.45;;
58752;SDS011;44525;46.052;13.610;2023-07-22T07:04:43;6.88;;;3.30;;
58752;SDS011;44525;46.052;13.610;2023-07-22T07:07:08;5.30;;;3.30;;
58752;SDS011;44525;46.052;13.610;2023-07-22T07:09:34;5.15;;;3.25;;
58752;SDS011;44525;46.052;13.610;2023-07-22T07:12:00;5.82;;;3.30;;
58752;SDS011;44525;46.052;13.610;2023-07-22T07:14:25;5.88;;;2.92;;
58752;SDS011;44525;46.052;13.610;2023-07-22T07:16:51;4.78;;;3.05;;
58752;SDS011;44525;46.052;13.610;2023-07-22T07:19:16;4.72;;;2.92;;
58752;SDS011;44525;46.052;13.610;2023-07-22T07:21:41;5.10;;;3.38;;
58752;SDS011;44525;46.052;13.610;2023-07-22T07:24:07;6.32;;;3.20;;
58752;SDS011;44525;46.052;13.610;2023-07-22T07:26:32;6.93;;;3.13;;
58752;SDS011;44525;46.052;13.610;2023-07-22T07:28:57;5.30;;;3.40;;
58752;SDS011;44525;46.052;13.610;2023-07-22T07:31:23;5.32;;;3.20;;
58752;SDS011;44525;46.052;13.610;2023-07-22T07:33:48;5.43;;;3.10;;
58752;SDS011;44525;46.052;13.610;2023-07-22T07:36:13;7.05;;;2.95;;
58752;SDS011;44525;46.052;13.610;2023-07-22T07:38:39;5.30;;;3.00;;
58752;SDS011;44525;46.052;13.610;2023-07-22T07:41:06;4.63;;;3.05;;
58752;SDS011;44525;46.052;13.610;2023-07-22T07:43:36;6.10;;;3.13;;
58752;SDS011;44525;46.052;13.610;2023-07-22T07:46:21;5.57;;;3.28;;
58752;SDS011;44525;46.052;13.610;2023-07-22T07:48:54;4.90;;;3.03;;
58752;SDS011;44525;46.052;13.610;2023-07-22T07:51:21;5.82;;;3.63;;
58752;SDS011;44525;46.052;13.610;2023-07-22T07:53:48;5.70;;;3.55;;
58752;SDS011;44525;46.052;13.610;2023-07-22T07:56:16;4.85;;;3.20;;
58752;SDS011;44525;46.052;13.610;2023-07-22T07:58:43;5.35;;;3.40;;
58752;SDS011;44525;46.052;13.610;2023-07-22T08:01:09;5.97;;;3.13;;
58752;SDS011;44525;46.052;13.610;2023-07-22T08:03:35;5.68;;;3.42;;
58752;SDS011;44525;46.052;13.610;2023-07-22T08:06:02;7.03;;;3.30;;
58752;SDS011;44525;46.052;13.610;2023-07-22T08:08:28;6.50;;;3.60;;
58752;SDS011;44525;46.052;13.610;2023-07-22T08:10:59;10.95;;;3.50;;
58752;SDS011;44525;46.052;13.610;2023-07-22T08:13:29;7.30;;;3.08;;
58752;SDS011;44525;46.052;13.610;2023-07-22T08:15:59;5.45;;;3.10;;
58752;SDS011;44525;46.052;13.610;2023-07-22T08:18:26;5.65;;;3.20;;
58752;SDS011;44525;46.052;13.610;2023-07-22T08:20:52;10.77;;;3.58;;
58752;SDS011;44525;46.052;13.610;2023-07-22T08:23:18;6.32;;;3.28;;
58752;SDS011;44525;46.052;13.610;2023-07-22T08:25:44;6.65;;;3.55;;
58752;SDS011;44525;46.052;13.610;2023-07-22T08:28:09;6.45;;;3.80;;
58752;SDS011;44525;46.052;13.610;2023-07-22T08:30:34;5.97;;;3.53;;
58752;SDS011;44525;46.052;13.610;2023-07-22T08:33:00;7.18;;;3.47;;
58752;SDS011;44525;46.052;13.610;2023-07-22T08:35:25;7.53;;;3.60;;
58752;SDS011;44525;46.052;13.610;2023-07-22T08:37:51;5.65;;;3.75;;
58752;SDS011;44525;46.052;13.610;2023-07-22T08:40:17;6.70;;;3.53;;
58752;SDS011;44525;46.052;13.610;2023-07-22T08:42:43;6.57;;;3.50;;
58752;SDS011;44525;46.052;13.610;2023-07-22T08:45:10;6.18;;;3.50;;
58752;SDS011;44525;46.052;13.610;2023-07-22T08:47:43;6.53;;;3.95;;
58752;SDS011;44525;46.052;13.610;2023-07-22T08:50:11;6.45;;;3.47;;
58752;SDS011;44525;46.052;13.610;2023-07-22T08:52:41;5.53;;;3.40;;
58752;SDS011;44525;46.052;13.610;2023-07-22T08:55:08;6.35;;;3.90;;
58752;SDS011;44525;46.052;13.610;2023-07-22T08:57:35;8.43;;;3.90;;
58752;SDS011;44525;46.052;13.610;2023-07-22T09:00:02;6.72;;;3.42;;
58752;SDS011;44525;46.052;13.610;2023-07-22T09:02:30;6.45;;;3.55;;
58752;SDS011;44525;46.052;13.610;2023-07-22T09:04:57;8.63;;;3.53;;
58752;SDS011;44525;46.052;13.610;2023-07-22T09:07:23;5.97;;;3.38;;
58752;SDS011;44525;46.052;13.610;2023-07-22T09:09:49;5.90;;;3.60;;
58752;SDS011;44525;46.052;13.610;2023-07-22T09:12:16;8.32;;;3.67;;
58752;SDS011;44525;46.052;13.610;2023-07-22T09:14:42;6.80;;;3.75;;
58752;SDS011;44525;46.052;13.610;2023-07-22T09:17:08;7.60;;;3.30;;
58752;SDS011;44525;46.052;13.610;2023-07-22T09:19:34;5.80;;;3.78;;
58752;SDS011;44525;46.052;13.610;2023-07-22T09:21:59;7.00;;;4.75;;
58752;SDS011;44525;46.052;13.610;2023-07-22T09:24:25;7.60;;;4.88;;
58752;SDS011;44525;46.052;13.610;2023-07-22T09:26:53;7.38;;;4.82;;
58752;SDS011;44525;46.052;13.610;2023-07-22T09:29:24;9.77;;;5.72;;
58752;SDS011;44525;46.052;13.610;2023-07-22T09:31:58;9.75;;;4.63;;
58752;SDS011;44525;46.052;13.610;2023-07-22T09:34:23;7.40;;;4.22;;
58752;SDS011;44525;46.052;13.610;2023-07-22T09:36:51;7.40;;;4.25;;
58752;SDS011;44525;46.052;13.610;2023-07-22T09:39:17;7.45;;;4.22;;
58752;SDS011;44525;46.052;13.610;2023-07-22T09:41:43;8.38;;;4.22;;
58752;SDS011;44525;46.052;13.610;2023-07-22T09:44:11;6.03;;;3.35;;
58752;SDS011;44525;46.052;13.610;2023-07-22T09:46:40;6.57;;;3.80;;
58752;SDS011;44525;46.052;13.610;2023-07-22T09:49:06;7.43;;;4.78;;
58752;SDS011;44525;46.052;13.610;2023-07-22T09:51:37;6.07;;;4.00;;
58752;SDS011;44525;46.052;13.610;2023-07-22T09:54:04;7.22;;;3.88;;
58752;SDS011;44525;46.052;13.610;2023-07-22T09:56:31;5.38;;;3.65;;
58752;SDS011;44525;46.052;13.610;2023-07-22T09:58:58;6.32;;;3.60;;
58752;SDS011;44525;46.052;13.610;2023-07-22T10:01:24;6.25;;;3.92;;
58752;SDS011;44525;46.052;13.610;2023-07-22T10:03:52;5.10;;;3.40;;
58752;SDS011;44525;46.052;13.610;2023-07-22T10:06:20;6.60;;;4.00;;
58752;SDS011;44525;46.052;13.610;2023-07-22T10:08:51;5.55;;;3.63;;
58752;SDS011;44525;46.052;13.610;2023-07-22T10:11:17;7.47;;;3.47;;
58752;SDS011;44525;46.052;13.610;2023-07-22T10:13:43;5.97;;;3.83;;
58752;SDS011;44525;46.052;13.610;2023-07-22T10:16:10;5.38;;;3.53;;
58752;SDS011;44525;46.052;13.610;2023-07-22T10:18:35;7.28;;;3.95;;
58752;SDS011;44525;46.052;13.610;2023-07-22T10:21:02;7.40;;;4.22;;
58752;SDS011;44525;46.052;13.610;2023-07-22T10:23:28;5.93;;;3.53;;
58752;SDS011;44525;46.052;13.610;2023-07-22T10:25:56;5.85;;;4.20;;
58752;SDS011;44525;46.052;13.610;2023-07-22T10:28:22;6.35;;;3.75;;
58752;SDS011;44525;46.052;13.610;2023-07-22T10:30:49;8.52;;;3.70;;
58752;SDS011;44525;46.052;13.610;2023-07-22T10:33:16;6.15;;;4.05;;
58752;SDS011;44525;46.052;13.610;2023-07-22T10:35:42;6.65;;;3.80;;
58752;SDS011;44525;46.052;13.610;2023-07-22T10:38:15;7.25;;;3.78;;
58752;SDS011;44525;46.052;13.610;2023-07-22T10:43:15;5.22;;;3.50;;
58752;SDS011;44525;46.052;13.610;2023-07-22T10:45:43;6.65;;;3.90;;
58752;SDS011;44525;46.052;13.610;2023-07-22T10:48:15;7.13;;;3.88;;
58752;SDS011;44525;46.052;13.610;2023-07-22T10:50:50;7.50;;;4.00;;
58752;SDS011;44525;46.052;13.610;2023-07-22T11:06:30;6.68;;;3.92;;
58752;SDS011;44525;46.052;13.610;2023-07-22T11:08:56;5.45;;;3.50;;
58752;SDS011;44525;46.052;13.610;2023-07-22T11:11:33;6.43;;;4.13;;
58752;SDS011;44525;46.052;13.610;2023-07-22T11:14:16;5.78;;;3.83;;
58752;SDS011;44525;46.052;13.610;2023-07-22T11:16:46;5.43;;;3.50;;
58752;SDS011;44525;46.052;13.610;2023-07-22T11:19:12;6.03;;;3.78;;
58752;SDS011;44525;46.052;13.610;2023-07-22T11:21:39;6.13;;;3.92;;
58752;SDS011;44525;46.052;13.610;2023-07-22T11:24:05;5.53;;;3.45;;
58752;SDS011;44525;46.052;13.610;2023-07-22T11:26:32;5.55;;;3.92;;
58752;SDS011;44525;46.052;13.610;2023-07-22T11:28:58;4.82;;;3.47;;
58752;SDS011;44525;46.052;13.610;2023-07-22T11:31:33;6.40;;;3.88;;
58752;SDS011;44525;46.052;13.610;2023-07-22T11:34:01;7.70;;;4.57;;
58752;SDS011;44525;46.052;13.610;2023-07-22T11:36:27;5.57;;;3.55;;
58752;SDS011;44525;46.052;13.610;2023-07-22T11:38:53;7.20;;;3.58;;
58752;SDS011;44525;46.052;13.610;2023-07-22T11:41:19;5.85;;;3.65;;
58752;SDS011;44525;46.052;13.610;2023-07-22T11:43:45;7.53;;;4.07;;
58752;SDS011;44525;46.052;13.610;2023-07-22T11:46:10;5.43;;;4.00;;
58752;SDS011;44525;46.052;13.610;2023-07-22T11:48:36;8.25;;;4.13;;
58752;SDS011;44525;46.052;13.610;2023-07-22T11:51:01;5.75;;;3.92;;
58752;SDS011;44525;46.052;13.610;2023-07-22T11:53:27;5.75;;;3.65;;
58752;SDS011;44525;46.052;13.610;2023-07-22T11:55:55;7.13;;;4.13;;
58752;SDS011;44525;46.052;13.610;2023-07-22T11:58:25;7.25;;;3.78;;
58752;SDS011;44525;46.052;13.610;2023-07-22T12:01:05;19.33;;;4.85;;
58752;SDS011;44525;46.052;13.610;2023-07-22T12:03:34;7.75;;;4.30;;
58752;SDS011;44525;46.052;13.610;2023-07-22T12:06:00;9.52;;;3.97;;
58752;SDS011;44525;46.052;13.610;2023-07-22T12:08:30;7.93;;;4.00;;
58752;SDS011;44525;46.052;13.610;2023-07-22T12:10:57;6.30;;;3.75;;
58752;SDS011;44525;46.052;13.610;2023-07-22T12:13:23;6.57;;;3.65;;
58752;SDS011;44525;46.052;13.610;2023-07-22T12:16:01;6.35;;;3.88;;
58752;SDS011;44525;46.052;13.610;2023-07-22T12:18:27;7.28;;;3.80;;
58752;SDS011;44525;46.052;13.610;2023-07-22T12:20:53;6.07;;;4.00;;
58752;SDS011;44525;46.052;13.610;2023-07-22T12:23:18;5.97;;;3.88;;
58752;SDS011;44525;46.052;13.610;2023-07-22T12:25:44;6.88;;;4.00;;
58752;SDS011;44525;46.052;13.610;2023-07-22T12:28:09;5.55;;;3.60;;
58752;SDS011;44525;46.052;13.610;2023-07-22T12:30:36;6.05;;;4.10;;
58752;SDS011;44525;46.052;13.610;2023-07-22T12:33:02;5.47;;;3.75;;
58752;SDS011;44525;46.052;13.610;2023-07-22T12:35:27;6.63;;;4.43;;
58752;SDS011;44525;46.052;13.610;2023-07-22T12:37:53;6.18;;;4.18;;
58752;SDS011;44525;46.052;13.610;2023-07-22T12:40:18;6.38;;;4.13;;
58752;SDS011;44525;46.052;13.610;2023-07-22T12:42:43;7.32;;;4.15;;
58752;SDS011;44525;46.052;13.610;2023-07-22T12:45:09;6.15;;;4.10;;
58752;SDS011;44525;46.052;13.610;2023-07-22T12:47:35;6.82;;;3.97;;
58752;SDS011;44525;46.052;13.610;2023-07-22T12:50:01;5.38;;;3.88;;
58752;SDS011;44525;46.052;13.610;2023-07-22T12:52:27;8.20;;;4.18;;
58752;SDS011;44525;46.052;13.610;2023-07-22T12:54:52;7.65;;;3.90;;
58752;SDS011;44525;46.052;13.610;2023-07-22T12:57:18;7.35;;;4.15;;
58752;SDS011;44525;46.052;13.610;2023-07-22T12:59:43;8.13;;;3.80;;
58752;SDS011;44525;46.052;13.610;2023-07-22T13:02:09;7.72;;;4.15;;
58752;SDS011;44525;46.052;13.610;2023-07-22T13:04:34;7.10;;;4.10;;
58752;SDS011;44525;46.052;13.610;2023-07-22T13:07:00;7.57;;;4.60;;
58752;SDS011;44525;46.052;13.610;2023-07-22T13:09:25;6.57;;;4.00;;
58752;SDS011;44525;46.052;13.610;2023-07-22T13:11:50;8.27;;;4.07;;
58752;SDS011;44525;46.052;13.610;2023-07-22T13:14:16;6.05;;;4.22;;
58752;SDS011;44525;46.052;13.610;2023-07-22T13:16:43;6.90;;;4.05;;
58752;SDS011;44525;46.052;13.610;2023-07-22T13:19:08;6.53;;;3.85;;
58752;SDS011;44525;46.052;13.610;2023-07-22T13:21:34;7.60;;;4.20;;
58752;SDS011;44525;46.052;13.610;2023-07-22T13:23:59;6.93;;;3.90;;
58752;SDS011;44525;46.052;13.610;2023-07-22T13:26:25;6.55;;;4.30;;
58752;SDS011;44525;46.052;13.610;2023-07-22T13:28:50;6.53;;;4.20;;
58752;SDS011;44525;46.052;13.610;2023-07-22T13:31:15;6.82;;;3.90;;
58752;SDS011;44525;46.052;13.610;2023-07-22T13:33:40;8.30;;;4.20;;
58752;SDS011;44525;46.052;13.610;2023-07-22T13:36:06;7.30;;;4.22;;
58752;SDS011;44525;46.052;13.610;2023-07-22T13:38:32;8.48;;;4.25;;
58752;SDS011;44525;46.052;13.610;2023-07-22T13:40:57;7.13;;;4.13;;
58752;SDS011;44525;46.052;13.610;2023-07-22T13:43:22;7.22;;;4.28;;
58752;SDS011;44525;46.052;13.610;2023-07-22T13:45:48;8.48;;;4.28;;
58752;SDS011;44525;46.052;13.610;2023-07-22T13:48:13;6.90;;;4.40;;
58752;SDS011;44525;46.052;13.610;2023-07-22T13:50:38;6.05;;;4.07;;
58752;SDS011;44525;46.052;13.610;2023-07-22T13:53:05;6.97;;;4.30;;
58752;SDS011;44525;46.052;13.610;2023-07-22T13:55:31;5.75;;;4.15;;
58752;SDS011;44525;46.052;13.610;2023-07-22T13:57:56;7.78;;;4.00;;
58752;SDS011;44525;46.052;13.610;2023-07-22T14:00:21;5.57;;;4.00;;
58752;SDS011;44525;46.052;13.610;2023-07-22T14:02:47;6.32;;;4.20;;
58752;SDS011;44525;46.052;13.610;2023-07-22T14:05:12;5.65;;;4.00;;
58752;SDS011;44525;46.052;13.610;2023-07-22T14:07:38;7.82;;;4.45;;
58752;SDS011;44525;46.052;13.610;2023-07-22T14:10:04;5.82;;;4.03;;
58752;SDS011;44525;46.052;13.610;2023-07-22T14:12:30;10.73;;;4.20;;
58752;SDS011;44525;46.052;13.610;2023-07-22T14:14:56;5.95;;;4.25;;
58752;SDS011;44525;46.052;13.610;2023-07-22T14:17:21;6.25;;;4.30;;
58752;SDS011;44525;46.052;13.610;2023-07-22T14:19:46;6.05;;;3.83;;
58752;SDS011;44525;46.052;13.610;2023-07-22T14:22:12;7.10;;;4.50;;
58752;SDS011;44525;46.052;13.610;2023-07-22T14:24:37;7.38;;;4.38;;
58752;SDS011;44525;46.052;13.610;2023-07-22T14:27:02;8.15;;;4.15;;
58752;SDS011;44525;46.052;13.610;2023-07-22T14:29:28;7.38;;;4.45;;
58752;SDS011;44525;46.052;13.610;2023-07-22T14:31:55;5.75;;;3.78;;
58752;SDS011;44525;46.052;13.610;2023-07-22T14:34:22;6.70;;;4.40;;
58752;SDS011;44525;46.052;13.610;2023-07-22T14:36:47;6.90;;;3.92;;
58752;SDS011;44525;46.052;13.610;2023-07-22T14:39:12;7.53;;;4.25;;
58752;SDS011;44525;46.052;13.610;2023-07-22T14:41:40;6.18;;;4.20;;
58752;SDS011;44525;46.052;13.610;2023-07-22T14:44:06;6.45;;;4.40;;